Time;durP1;ratioP1;P1;durP2;ratioP2;P2;SDS_P1;SDS_P2;PMS_P1;PMS_P2;Temp;Humidity;BMP_temperature;BMP_pressure;BME280_temperature;BME280_humidity;BME280_pressure;Samples;Min_cycle;Max_cycle;Signal;HPM_P1;HPM_P2
2023/03/15 20:48:36;;;;;;;;;5.20;5.20;;;;;;;;5101595;27;1386038;-79
2023/03/15 20:51:02;;;;;;;;;9.00;8.00;;;;;;;;5063299;28;14252;-84
2023/03/15 20:53:29;;;;;;;;;10.00;9.20;;;;;;;;5064225;28;13451;-84
2023/03/15 20:55:54;;;;;;;;;3.60;3.60;;;;;;;;5065723;28;13596;-85
2023/03/15 20:58:20;;;;;;;;;2.25;2.25;;;;;;;;5066038;28;15183;-85
2023/03/15 21:00:45;;;;;;;;;3.00;3.00;;;;;;;;5084590;28;13572;-80
2023/03/15 21:03:11;;;;;;;;;3.50;3.00;;;;;;;;5084215;28;14230;-82
2023/03/15 21:05:38;;;;;;;;;7.25;5.00;;;;;;;;5084025;28;13567;-82
2023/03/15 21:08:03;;;;;;;;;5.00;5.00;;;;;;;;5080274;28;13461;-81
2023/03/15 21:10:29;;;;;;;;;6.67;5.00;;;;;;;;5082678;28;13518;-80
2023/03/15 21:12:54;;;;;;;;;5.00;5.00;;;;;;;;5083872;28;13422;-83
2023/03/15 21:15:20;;;;;;;;;5.00;5.00;;;;;;;;5078998;28;13437;-81
2023/03/15 21:17:47;;;;;;;;;7.00;7.00;;;;;;;;5083618;28;13481;-80
2023/03/15 21:20:13;;;;;;;;;9.00;8.60;;;;;;;;5076694;28;13450;-71
2023/03/15 21:22:39;;;;;;;;;8.00;8.00;;;;;;;;5079841;28;13561;-75
2023/03/15 21:25:06;;;;;;;;;9.00;9.00;;;;;;;;5083774;28;13442;-72
2023/03/15 21:27:32;;;;;;;;;13.00;8.00;;;;;;;;5082431;28;13455;-73
2023/03/15 21:29:58;;;;;;;;;8.00;8.00;;;;;;;;5082795;28;13511;-72
2023/03/15 21:32:24;;;;;;;;;8.75;8.75;;;;;;;;5082618;28;13465;-72
2023/03/15 21:34:49;;;;;;;;;11.50;7.50;;;;;;;;5082976;28;13448;-72
2023/03/15 21:37:15;;;;;;;;;4.00;4.00;;;;;;;;5082831;28;13558;-72
2023/03/15 21:39:40;;;;;;;;;8.00;7.00;;;;;;;;5082290;28;13469;-72
2023/03/15 21:42:05;;;;;;;;;8.25;8.25;;;;;;;;5080533;28;13410;-71
2023/03/15 21:44:35;;;;;;;;;9.67;9.67;;;;;;;;5078707;28;13504;-71
2023/03/15 21:47:03;;;;;;;;;13.00;10.00;;;;;;;;5079950;28;14358;-71
2023/03/15 21:49:28;;;;;;;;;11.00;10.00;;;;;;;;5063207;28;14634;-71
2023/03/15 21:51:54;;;;;;;;;6.67;6.67;;;;;;;;5080563;28;13504;-71
2023/03/15 21:54:19;;;;;;;;;4.00;4.00;;;;;;;;5079216;28;13485;-73
2023/03/15 21:56:45;;;;;;;;;7.33;6.33;;;;;;;;5081703;28;13497;-72
2023/03/15 21:59:11;;;;;;;;;10.00;8.00;;;;;;;;5055017;28;13518;-71
2023/03/15 22:01:36;;;;;;;;;7.75;7.00;;;;;;;;5069203;28;13420;-71
2023/03/15 22:04:01;;;;;;;;;7.00;7.00;;;;;;;;5069516;28;13436;-71
2023/03/15 22:06:27;;;;;;;;;6.00;4.67;;;;;;;;5069385;28;13440;-71
2023/03/15 22:08:52;;;;;;;;;7.00;7.00;;;;;;;;5051604;28;14185;-71
2023/03/15 22:11:17;;;;;;;;;4.00;4.00;;;;;;;;5069403;28;13418;-72
2023/03/15 22:13:43;;;;;;;;;5.00;5.00;;;;;;;;5069093;28;14200;-72
2023/03/15 22:16:09;;;;;;;;;7.00;5.67;;;;;;;;5067948;28;13549;-72
2023/03/15 22:18:34;;;;;;;;;7.00;7.00;;;;;;;;5050671;28;13459;-72
2023/03/15 22:20:59;;;;;;;;;8.00;8.00;;;;;;;;5067969;28;13414;-73
2023/03/15 22:23:25;;;;;;;;;8.00;8.00;;;;;;;;5069303;28;13413;-72
2023/03/15 22:25:52;;;;;;;;;7.75;7.00;;;;;;;;5069199;28;13419;-74
2023/03/15 22:28:17;;;;;;;;;9.00;6.50;;;;;;;;5067275;28;13473;-74
2023/03/15 22:30:45;;;;;;;;;9.33;5.67;;;;;;;;5067229;28;13466;-73
2023/03/15 22:33:10;;;;;;;;;11.00;8.00;;;;;;;;5067436;28;13450;-72
2023/03/15 22:35:36;;;;;;;;;6.00;6.00;;;;;;;;5069029;28;13235;-72
2023/03/15 22:38:08;;;;;;;;;8.25;6.50;;;;;;;;5068595;28;13449;-71
2023/03/15 22:40:34;;;;;;;;;8.80;7.00;;;;;;;;5066649;28;13426;-72
2023/03/15 22:42:59;;;;;;;;;7.50;7.50;;;;;;;;5060857;28;13378;-71
2023/03/15 22:45:24;;;;;;;;;7.00;7.00;;;;;;;;5068265;28;13401;-71
2023/03/15 22:47:50;;;;;;;;;6.00;3.25;;;;;;;;5068205;28;13405;-72
2023/03/15 22:50:15;;;;;;;;;9.00;9.00;;;;;;;;5066372;28;13424;-72
2023/03/15 22:52:40;;;;;;;;;7.50;7.50;;;;;;;;5068623;28;13356;-73
2023/03/15 22:55:06;;;;;;;;;8.25;8.25;;;;;;;;5068713;28;13488;-72
2023/03/15 22:57:32;;;;;;;;;9.00;9.00;;;;;;;;5068427;28;13414;-72
2023/03/15 22:59:58;;;;;;;;;13.00;9.25;;;;;;;;5065325;28;13396;-71
2023/03/15 23:02:23;;;;;;;;;10.00;9.25;;;;;;;;5068067;28;13426;-71
2023/03/15 23:04:49;;;;;;;;;10.60;8.00;;;;;;;;5067989;28;13361;-71
2023/03/15 23:07:14;;;;;;;;;14.00;9.50;;;;;;;;5067868;28;13514;-78
2023/03/15 23:09:39;;;;;;;;;7.25;7.00;;;;;;;;5067839;28;13381;-70
2023/03/15 23:12:05;;;;;;;;;9.33;9.33;;;;;;;;5060858;28;14158;-72
2023/03/15 23:14:30;;;;;;;;;8.00;8.00;;;;;;;;5050028;28;13434;-80
2023/03/15 23:16:55;;;;;;;;;8.25;7.75;;;;;;;;5048171;28;13430;-79
2023/03/15 23:19:21;;;;;;;;;8.00;8.00;;;;;;;;5046673;28;13470;-79
2023/03/15 23:21:46;;;;;;;;;12.33;8.00;;;;;;;;5073351;23;13438;-75
2023/03/15 23:24:13;;;;;;;;;10.00;9.50;;;;;;;;5006003;28;13298;-74
2023/03/15 23:26:38;;;;;;;;;11.50;8.00;;;;;;;;5006485;28;13518;-74
2023/03/15 23:29:09;;;;;;;;;10.00;8.00;;;;;;;;5006776;28;13317;-75
2023/03/15 23:31:34;;;;;;;;;10.33;8.67;;;;;;;;5007060;28;13311;-75
2023/03/15 23:34:00;;;;;;;;;11.00;8.75;;;;;;;;5006961;28;13305;-74
2023/03/15 23:36:25;;;;;;;;;11.00;9.00;;;;;;;;5007043;28;13285;-75
2023/03/15 23:38:52;;;;;;;;;9.00;7.50;;;;;;;;5006999;28;13995;-74
2023/03/15 23:41:17;;;;;;;;;8.20;6.40;;;;;;;;5006914;28;13314;-75
2023/03/15 23:43:42;;;;;;;;;10.00;9.00;;;;;;;;5006902;28;14067;-75
2023/03/15 23:46:08;;;;;;;;;8.50;8.00;;;;;;;;5007042;28;13410;-75
2023/03/15 23:48:35;;;;;;;;;9.80;6.00;;;;;;;;5006930;28;13330;-76
2023/03/15 23:51:04;;;;;;;;;9.50;8.25;;;;;;;;5006723;28;13341;-76
2023/03/15 23:53:30;;;;;;;;;11.20;9.60;;;;;;;;5006754;28;13386;-76
2023/03/15 23:55:55;;;;;;;;;6.50;5.75;;;;;;;;5006664;28;14077;-75
2023/03/15 23:58:20;;;;;;;;;11.00;6.00;;;;;;;;5006791;28;13323;-75
